createdAt,value
2023-04-30T01:18:26.888Z,101158.25
2023-04-30T01:23:49.012Z,101164.50
2023-04-30T01:28:55.616Z,101165.97
2023-04-30T01:33:59.405Z,101160.41
2023-04-30T01:39:19.569Z,101162.38
2023-04-30T01:44:43.912Z,101160.69
2023-04-30T01:49:57.078Z,101158.53
2023-04-30T01:55:08.358Z,101160.16
2023-04-30T02:00:15.184Z,101162.25
2023-04-30T02:05:19.021Z,101162.88
2023-04-30T02:10:23.982Z,101162.44
2023-04-30T02:15:29.846Z,101164.72
2023-04-30T02:20:33.514Z,101166.53
2023-04-30T02:25:37.094Z,101168.06
2023-04-30T02:30:44.933Z,101165.13
2023-04-30T02:35:48.626Z,101151.44
2023-04-30T02:40:52.236Z,101155.28
2023-04-30T02:45:57.544Z,101144.81
2023-04-30T02:51:01.171Z,101154.47
2023-04-30T02:56:05.115Z,101161.50
2023-04-30T03:01:11.285Z,101163.78
2023-04-30T03:06:14.989Z,101163.41
2023-04-30T03:11:18.605Z,101172.78
2023-04-30T03:16:23.945Z,101175.16
2023-04-30T03:21:27.630Z,101180.84
2023-04-30T03:26:31.245Z,101191.69
2023-04-30T03:31:36.586Z,101192.19
2023-04-30T03:36:40.233Z,101188.34
2023-04-30T03:41:43.854Z,101205.50
2023-04-30T03:46:49.134Z,101215.78
2023-04-30T03:51:52.805Z,101211.91
2023-04-30T03:56:56.466Z,101224.88
2023-04-30T04:02:01.887Z,101228.91
2023-04-30T04:07:05.552Z,101235.38
2023-04-30T04:12:09.194Z,101230.00
2023-04-30T04:17:14.515Z,101242.13
2023-04-30T04:22:18.170Z,101237.88
2023-04-30T04:27:21.786Z,101248.47
2023-04-30T04:32:27.094Z,101246.97
2023-04-30T04:37:31.466Z,101246.00
2023-04-30T04:42:35.057Z,101243.28
2023-04-30T04:47:40.452Z,101235.50
2023-04-30T04:52:44.148Z,101239.97
2023-04-30T04:57:47.769Z,101252.63
2023-04-30T05:02:53.216Z,101249.38
2023-04-30T05:07:56.885Z,101250.63
2023-04-30T05:13:00.508Z,101249.97
2023-04-30T05:18:05.991Z,101249.47
2023-04-30T05:23:09.729Z,101253.34
2023-04-30T05:28:13.537Z,101250.88
2023-04-30T05:33:18.880Z,101253.56
2023-04-30T05:38:22.471Z,101249.78
2023-04-30T05:43:26.078Z,101249.31
2023-04-30T05:48:32.147Z,101244.19
2023-04-30T05:53:35.788Z,101249.22
2023-04-30T05:58:40.251Z,101244.31
2023-04-30T06:03:45.520Z,101244.69
2023-04-30T06:08:49.249Z,101249.34
2023-04-30T06:13:52.965Z,101246.16
2023-04-30T06:18:58.223Z,101240.25
2023-04-30T06:24:01.855Z,101226.25
2023-04-30T06:29:05.549Z,101232.56
2023-04-30T06:34:10.830Z,101226.50
2023-04-30T06:39:16.498Z,101234.03
2023-04-30T06:44:20.877Z,101223.91
2023-04-30T06:49:26.201Z,101223.13
2023-04-30T06:54:29.881Z,101223.41
2023-04-30T06:59:33.517Z,101226.94
2023-04-30T07:04:38.775Z,101227.16
2023-04-30T07:09:42.383Z,101221.88
2023-04-30T07:14:46.018Z,101222.81
2023-04-30T07:19:51.272Z,101229.97
2023-04-30T07:24:54.896Z,101233.69
2023-04-30T07:29:58.497Z,101235.56
2023-04-30T07:35:03.805Z,101227.88
2023-04-30T07:40:08.684Z,101226.19
2023-04-30T07:45:12.601Z,101230.81
2023-04-30T07:50:17.952Z,101230.88
2023-04-30T07:55:21.712Z,101213.50
2023-04-30T08:00:25.367Z,101216.16
2023-04-30T08:05:30.625Z,101199.69
2023-04-30T08:10:35.034Z,101217.31
2023-04-30T08:15:41.588Z,101211.28
2023-04-30T08:20:46.968Z,101207.19
2023-04-30T08:25:50.603Z,101211.53
2023-04-30T08:30:54.185Z,101200.44
2023-04-30T08:35:59.464Z,101199.66
2023-04-30T08:41:10.192Z,101194.41
2023-04-30T08:46:14.087Z,101180.63
2023-04-30T08:51:19.385Z,101185.91
2023-04-30T08:56:25.313Z,101169.38
2023-04-30T09:01:29.060Z,101160.66
2023-04-30T09:06:34.473Z,101153.81
2023-04-30T09:11:38.138Z,101157.47
2023-04-30T09:16:48.883Z,101151.41
2023-04-30T09:21:54.516Z,101147.16
2023-04-30T09:26:58.168Z,101147.44
2023-04-30T09:32:09.878Z,101137.00
2023-04-30T09:37:15.292Z,101134.41
2023-04-30T09:42:19.430Z,101131.81
2023-04-30T09:47:23.086Z,101131.06
2023-04-30T09:52:28.350Z,101128.69
2023-04-30T09:57:32.443Z,101119.91
2023-04-30T10:02:37.144Z,101131.34
2023-04-30T10:07:43.020Z,101129.56
2023-04-30T10:12:51.663Z,101134.91
2023-04-30T10:18:01.594Z,101136.69
2023-04-30T10:23:07.276Z,101136.69
2023-04-30T10:28:12.364Z,101132.53
2023-04-30T10:33:24.041Z,101134.31
2023-04-30T10:38:31.628Z,101122.16
2023-04-30T10:43:37.438Z,101125.69
2023-04-30T10:48:41.128Z,101122.97
2023-04-30T10:53:50.955Z,101129.91
2023-04-30T10:58:54.556Z,101130.84
2023-04-30T11:04:08.587Z,101129.19
2023-04-30T11:09:14.890Z,101122.25
2023-04-30T11:14:22.119Z,101126.56
2023-04-30T11:19:25.786Z,101121.44
2023-04-30T11:25:04.935Z,101118.03
2023-04-30T11:30:14.184Z,101120.63
2023-04-30T11:35:19.660Z,101116.38
2023-04-30T11:40:24.970Z,101112.06
2023-04-30T11:45:28.635Z,101106.94
2023-04-30T11:50:35.014Z,101097.38
2023-04-30T11:55:41.929Z,101093.88
2023-04-30T12:00:46.334Z,101096.53
2023-04-30T12:05:50.669Z,101094.84
2023-04-30T12:10:55.976Z,101089.63
2023-04-30T12:16:00.264Z,101083.56
2023-04-30T12:21:04.111Z,101084.44
2023-04-30T12:26:09.443Z,101072.38
2023-04-30T12:31:13.095Z,101065.59
2023-04-30T12:36:16.969Z,101064.03
2023-04-30T12:41:22.263Z,101071.84
2023-04-30T12:46:28.050Z,101069.47
2023-04-30T12:51:33.809Z,101063.28
2023-04-30T12:56:39.103Z,101072.78
2023-04-30T13:01:46.360Z,101065.44
2023-04-30T13:06:50.063Z,101055.41
2023-04-30T13:11:55.395Z,101055.81
2023-04-30T13:16:59.211Z,101066.63
2023-04-30T13:22:02.842Z,101065.50
2023-04-30T13:27:09.095Z,101075.59
2023-04-30T13:32:11.979Z,101073.56
2023-04-30T13:37:15.564Z,101070.78
2023-04-30T13:42:20.913Z,101077.53
2023-04-30T13:47:24.618Z,101078.13
2023-04-30T13:52:28.265Z,101070.69
2023-04-30T13:57:33.537Z,101070.38
2023-04-30T14:02:37.308Z,101076.88
2023-04-30T14:07:40.993Z,101068.78
2023-04-30T14:12:46.212Z,101077.13
2023-04-30T14:17:49.916Z,101067.91
2023-04-30T14:22:53.856Z,101083.78
2023-04-30T14:27:59.178Z,101083.44
2023-04-30T14:33:02.849Z,101083.00
2023-04-30T14:38:09.371Z,101085.75
2023-04-30T14:43:14.639Z,101088.84
2023-04-30T14:48:20.587Z,101099.31
2023-04-30T14:53:23.505Z,101104.03
2023-04-30T14:58:29.858Z,101103.50
2023-04-30T15:03:33.615Z,101099.88
2023-04-30T15:08:37.333Z,101108.06
2023-04-30T15:13:42.814Z,101097.47
2023-04-30T15:18:46.587Z,101101.47
2023-04-30T15:23:50.254Z,101108.34
2023-04-30T15:28:56.493Z,101114.19
2023-04-30T15:34:00.134Z,101111.63
2023-04-30T15:39:03.781Z,101118.22
2023-04-30T15:44:11.732Z,101122.91
2023-04-30T15:49:15.475Z,101119.97
2023-04-30T15:54:19.142Z,101112.31
2023-04-30T15:59:24.382Z,101120.38
2023-04-30T16:04:28.003Z,101123.75
2023-04-30T16:09:31.853Z,101108.66
2023-04-30T16:14:38.106Z,101118.69
2023-04-30T16:19:41.726Z,101111.22
2023-04-30T16:24:45.392Z,101099.66
2023-04-30T16:29:51.727Z,101104.06
2023-04-30T16:34:55.407Z,101113.19
2023-04-30T16:39:59.062Z,101117.50
2023-04-30T16:45:04.699Z,101135.84
2023-04-30T16:50:09.895Z,101141.63
2023-04-30T16:55:13.511Z,101141.16
2023-04-30T17:00:18.996Z,101123.66
2023-04-30T17:05:22.855Z,101120.81
2023-04-30T17:10:26.500Z,101116.69
2023-04-30T17:15:31.869Z,101104.84
2023-04-30T17:20:35.598Z,101108.69
2023-04-30T17:25:39.578Z,101115.09
2023-04-30T17:30:45.173Z,101113.22
2023-04-30T17:35:48.876Z,101133.09
2023-04-30T17:40:53.629Z,101142.97
2023-04-30T17:45:58.951Z,101125.44
2023-04-30T17:51:02.635Z,101125.06
2023-04-30T17:56:06.639Z,101123.31
2023-04-30T18:01:12.134Z,101125.88
2023-04-30T18:06:15.887Z,101112.50
2023-04-30T18:11:19.526Z,101108.03
2023-04-30T18:16:25.581Z,101098.53
2023-04-30T18:21:29.220Z,101096.78
2023-04-30T18:26:32.852Z,101094.09
2023-04-30T18:31:38.314Z,101100.72
2023-04-30T18:36:41.967Z,101094.97
2023-04-30T18:41:45.755Z,101092.00
2023-04-30T18:46:52.058Z,101098.50
2023-04-30T18:51:55.729Z,101099.97
2023-04-30T18:56:59.374Z,101097.84
2023-04-30T19:02:04.740Z,101091.31
2023-04-30T19:07:08.369Z,101087.81
2023-04-30T19:12:12.108Z,101080.78
2023-04-30T19:17:19.473Z,101083.38
2023-04-30T19:22:24.462Z,101105.06
2023-04-30T19:32:33.629Z,101079.19
2023-04-30T19:37:37.404Z,101075.81
2023-04-30T19:42:41.049Z,101073.34
2023-04-30T19:47:46.324Z,101064.50
